Latest Weather Observations for Edinburgh

IDS60901

Issued at 4:11 pm CST Tuesday 21 April 2015 (issued every 10 minutes, with the page automatically refreshed every 10 minutes)

About weather observations | Map of Adelaide area stations | Latest observations for Adelaide area | Other Formats
Station Details ID: 023083 Name: EDINBURGH RAAF Lat: -34.71 Lon: 138.62 Height: 16.54 m
Data from the previous 72 hours. | See also: Recent months at Edinburgh
Date/Time
CST
Tmp

°C
App
Tmp
°C
Dew
Point
°C
Rel
Hum
%
Delta-T

°C
Wind Press
QNH
hPa
Press
MSL
hPa
Rain
since
9 am
mm
Dir
 
Spd
km/h
Gust
km/h
Spd
kts
Gust
kts
21/04:00pm 18.0 14.2 5.6 44 6.0 SSE 15 22 8 12 1028.6 1028.6 0.0
21/03:30pm 18.1 14.3 5.7 44 6.0 SSE 15 20 8 11 1028.7 1028.7 0.0
21/03:00pm 18.0 13.6 4.6 41 6.3 SE 17 24 9 13 1029.1 1029.1 0.0
21/02:30pm 18.2 14.5 4.4 40 6.5 SSE 13 20 7 11 1029.4 1029.4 0.0
21/02:00pm 17.8 13.2 5.4 44 6.0 SSE 19 26 10 14 1029.6 1029.6 0.0
21/01:30pm 17.8 13.7 6.0 46 5.7 SSE 17 24 9 13 1030.1 1030.1 0.0
21/01:00pm 17.1 13.0 4.4 43 6.0 SE 15 26 8 14 1030.7 1030.7 0.0
21/12:30pm 17.1 12.8 5.1 45 5.7 SE 17 26 9 14 1031.4 1031.4 0.0
21/12:00pm 16.8 12.4 4.5 44 5.7 ESE 17 26 9 14 1032.2 1032.2 0.0
21/11:30am 16.6 12.4 5.9 49 5.1 SE 17 24 9 13 1033.0 1033.0 0.0
21/11:00am 16.1 11.9 5.7 50 5.0 ESE 17 26 9 14 1033.5 1033.5 0.0
21/10:30am 15.4 10.4 4.5 48 5.0 ESE 20 28 11 15 1033.9 1033.9 0.0
21/10:00am 15.4 10.7 5.3 51 4.7 SE 19 30 10 16 1034.0 1034.0 0.0
21/09:30am 14.5 10.1 4.8 52 4.5 ESE 17 32 9 17 1034.3 1034.3 0.0
21/09:00am 13.8 10.7 5.4 57 3.9 ESE 11 19 6 10 1034.6 1034.6 0.0
21/08:30am 12.6 9.2 5.8 63 3.2 SE 13 20 7 11 1034.7 1034.7 0.0
21/08:00am 11.8 9.6 6.3 69 2.6 SE 7 11 4 6 1034.7 1034.7 0.0
21/07:30am 10.2 8.1 5.8 74 2.0 SSE 6 9 3 5 1034.5 1034.5 0.0
21/07:00am 8.9 6.5 5.1 77 1.7 S 7 9 4 5 1034.3 1034.3 0.0
21/06:30am 9.7 7.4 4.9 72 2.1 SSE 6 7 3 4 1034.2 1034.2 0.0
21/06:00am 9.7 7.4 4.9 72 2.1 SE 6 9 3 5 1034.1 1034.1 0.0
21/05:30am 9.7 7.2 4.5 70 2.3 SSE 7 9 4 5 1034.0 1034.0 0.0
21/05:00am 9.8 7.2 4.4 69 2.4 SSE 7 9 4 5 1034.1 1034.1 0.0
21/04:30am 10.2 7.8 4.4 67 2.6 SE 6 9 3 5 1034.0 1034.0 0.0
21/04:00am 10.5 7.2 4.6 67 2.6 SE 11 15 6 8 1033.9 1033.9 0.0
21/03:30am 10.4 7.1 4.5 67 2.6 SE 11 15 6 8 1033.9 1033.9 0.0
21/03:00am 10.6 7.3 4.7 67 2.6 SE 11 17 6 9 1034.0 1034.0 0.0
21/02:30am 10.7 7.4 4.8 67 2.6 SE 11 17 6 9 1034.4 1034.4 0.0
21/02:00am 11.1 8.3 5.2 67 2.7 SE 9 20 5 11 1034.6 1034.6 0.0
21/01:30am 11.0 9.1 4.9 66 2.7 ESE 4 7 2 4 1034.9 1034.9 0.0
21/01:00am 11.1 9.2 5.0 66 2.8 SSE 4 7 2 4 1035.0 1035.0 0.0
21/12:30am 11.8 8.6 5.2 64 3.0 SSE 11 17 6 9 1034.9 1034.9 0.0
21/12:00am 12.1 9.0 5.7 65 3.0 SSE 11 15 6 8 1035.0 1035.0 0.0
 
Date/Time
CST
Tmp

°C
App
Tmp
°C
Dew
Point
°C
Rel
Hum
%
Delta-T

°C
Wind Press
QNH
hPa
Press
MSL
hPa
Rain
since
9 am
mm
Dir
 
Spd
km/h
Gust
km/h
Spd
kts
Gust
kts
20/11:30pm 12.0 9.1 6.3 68 2.7 SSE 11 19 6 10 1035.3 1035.3 0.0
20/11:00pm 11.8 9.4 6.9 72 2.3 SSE 9 13 5 7 1035.4 1035.4 0.0
20/10:30pm 11.8 9.4 7.1 73 2.2 SSE 9 13 5 7 1035.6 1035.6 0.0
20/10:00pm 11.5 9.2 7.4 76 2.0 SSE 9 15 5 8 1035.9 1035.9 0.0
20/09:30pm 11.6 9.1 6.7 72 2.3 S 9 17 5 9 1035.9 1035.9 0.0
20/09:00pm 12.0 9.5 6.7 70 2.5 S 9 11 5 6 1035.9 1035.9 0.0
20/08:30pm 12.2 9.7 6.7 69 2.6 S 9 13 5 7 1035.9 1035.9 0.0
20/08:00pm 12.5 9.9 6.3 66 2.9 SSE 9 13 5 7 1035.9 1035.9 0.0
20/07:30pm 12.7 10.0 5.8 63 3.2 SSE 9 15 5 8 1036.1 1036.1 0.0
20/07:00pm 13.0 9.9 5.4 60 3.5 SSE 11 13 6 7 1035.9 1035.9 0.0
20/06:30pm 13.5 9.6 5.2 57 3.8 SSE 15 22 8 12 1035.7 1035.7 0.0
20/06:00pm 13.9 9.8 4.5 53 4.3 SSE 15 22 8 12 1035.5 1035.5 0.0
20/05:30pm 14.5 10.1 4.5 51 4.6 SSE 17 26 9 14 1035.2 1035.2 0.0
20/05:00pm 15.3 10.5 4.7 49 5.0 SE 19 28 10 15 1034.8 1034.8 0.0
20/04:30pm 15.9 10.9 3.7 44 5.6 SSE 19 28 10 15 1034.7 1034.7 0.0
20/04:00pm 16.4 11.3 4.1 44 5.7 SSE 20 26 11 14 1034.9 1034.9 0.0
20/03:30pm 16.1 11.0 3.2 42 5.8 SSE 19 28 10 15 1035.0 1035.0 0.0
20/03:00pm 16.5 11.7 2.5 39 6.3 ESE 17 22 9 12 1035.1 1035.1 0.0
20/02:30pm 16.3 11.6 3.0 41 6.0 SSE 17 26 9 14 1035.2 1035.2 0.0
20/02:00pm 16.1 11.2 1.8 38 6.3 SSE 17 28 9 15 1035.2 1035.2 0.0
20/01:30pm 16.2 11.3 1.9 38 6.3 SSE 17 26 9 14 1035.6 1035.6 0.0
20/01:00pm 15.8 10.8 1.2 37 6.4 ESE 17 26 9 14 1036.1 1036.1 0.0
20/12:30pm 15.3 9.9 1.4 39 6.0 SE 19 32 10 17 1036.6 1036.6 0.0
20/12:00pm 14.9 9.1 0.0 36 6.2 SE 20 28 11 15 1037.2 1037.2 0.0
20/11:30am 14.8 9.4 1.3 40 5.8 SE 19 28 10 15 1038.0 1038.0 0.0
20/11:00am 14.9 10.4 2.1 42 5.7 ESE 15 26 8 14 1038.2 1038.2 0.0
20/10:30am 13.9 8.7 -0.2 38 5.8 SE 17 26 9 14 1038.6 1038.6 0.0
20/10:00am 13.6 8.8 -0.1 39 5.7 SE 15 20 8 11 1038.9 1038.9 0.0
20/09:30am 12.7 8.3 0.5 43 5.0 ENE 13 24 7 13 1039.0 1039.0 0.0
20/09:00am 10.8 9.3 2.9 58 3.4 CALM 0 0 0 0 1039.2 1039.2 0.2
20/08:30am 10.1 8.5 2.7 60 3.1 CALM 0 4 0 2 1039.2 1039.2 0.2
20/08:00am 8.6 7.3 4.0 73 2.0 CALM 0 0 0 0 1039.3 1039.3 0.2
20/07:30am 6.2 4.7 2.8 79 1.4 CALM 0 0 0 0 1038.9 1038.9 0.2
20/07:00am 4.9 2.5 1.9 81 1.2 ENE 4 7 2 4 1038.5 1038.5 0.2
20/06:30am 4.8 3.0 1.3 78 1.4 CALM 0 0 0 0 1038.4 1038.4 0.2
20/06:00am 4.2 1.1 1.1 80 1.2 W 7 9 4 5 1038.4 1038.4 0.2
20/05:30am 4.7 1.6 1.4 79 1.3 WSW 7 9 4 5 1038.1 1038.1 0.2
20/05:00am 6.6 3.5 1.5 70 2.0 E 7 11 4 6 1037.8 1037.8 0.2
20/04:30am 7.2 4.1 1.3 66 2.3 ESE 7 9 4 5 1037.7 1037.7 0.2
20/04:00am 7.9 4.4 1.3 63 2.7 ESE 9 11 5 6 1037.6 1037.6 0.2
20/03:30am 8.8 5.2 0.8 57 3.2 ESE 9 13 5 7 1037.5 1037.5 0.2
20/03:00am 8.7 5.2 1.4 60 3.0 SE 9 13 5 7 1037.6 1037.6 0.2
20/02:30am 8.7 5.2 1.4 60 3.0 SSE 9 11 5 6 1037.7 1037.7 0.2
20/02:00am 9.3 5.9 1.7 59 3.2 ESE 9 13 5 7 1037.7 1037.7 0.2
20/01:30am 8.8 5.8 2.2 63 2.7 SE 7 11 4 6 1037.8 1037.8 0.2
20/01:00am 9.3 6.0 2.6 63 2.8 ESE 9 13 5 7 1037.6 1037.6 0.2
20/12:30am 9.3 6.7 3.3 66 2.6 SE 6 9 3 5 1037.6 1037.6 0.2
20/12:00am 9.6 7.1 3.8 67 2.5 ESE 6 9 3 5 1037.5 1037.5 0.2
 
Date/Time
CST
Tmp

°C
App
Tmp
°C
Dew
Point
°C
Rel
Hum
%
Delta-T

°C
Wind Press
QNH
hPa
Press
MSL
hPa
Rain
since
9 am
mm
Dir
 
Spd
km/h
Gust
km/h
Spd
kts
Gust
kts
19/11:30pm 10.0 7.0 4.2 67 2.5 SE 9 15 5 8 1037.6 1037.6 0.2
19/11:00pm 10.1 7.5 4.3 67 2.6 SSE 7 11 4 6 1037.7 1037.7 0.2
19/10:30pm 10.4 7.1 4.5 67 2.6 SSE 11 17 6 9 1037.5 1037.5 0.2
19/10:00pm 10.4 7.5 4.8 68 2.5 SSE 9 13 5 7 1037.5 1037.5 0.2
19/09:30pm 8.4 7.2 4.6 77 1.7 CALM 0 6 0 3 1037.2 1037.2 0.2
19/09:00pm 8.7 6.4 4.9 77 1.7 SSW 6 7 3 4 1037.0 1037.0 0.2
19/08:30pm 10.0 8.3 4.2 67 2.5 S 2 7 1 4 1036.6 1036.6 0.2
19/08:00pm 11.4 8.8 4.4 62 3.2 S 7 11 4 6 1036.3 1036.3 0.2
19/07:30pm 12.0 8.6 4.2 59 3.5 SSE 11 17 6 9 1035.9 1035.9 0.2
19/07:00pm 12.3 8.6 4.5 59 3.5 SSE 13 20 7 11 1035.6 1035.6 0.2
19/06:30pm 12.5 9.2 4.5 58 3.6 SSE 11 19 6 10 1035.2 1035.2 0.2
19/06:00pm 13.0 9.3 4.4 56 3.9 SSE 13 20 7 11 1034.8 1034.8 0.2
19/05:30pm 13.9 9.3 3.7 50 4.6 SSE 17 30 9 16 1034.2 1034.2 0.2
19/05:00pm 14.6 9.0 1.2 40 5.8 SSE 20 33 11 18 1033.9 1033.9 0.2
19/04:30pm 14.6 8.7 1.8 42 5.5 SSE 22 33 12 18 1033.7 1033.7 0.2
19/04:00pm 15.5 10.2 1.6 39 6.1 SSE 19 28 10 15 1033.5 1033.5 0.2
19/03:30pm 15.8 10.7 2.9 42 5.8 SE 19 33 10 18 1033.3 1033.3 0.2
19/03:00pm 16.2 11.5 3.3 42 5.8 SSE 17 22 9 12 1033.2 1033.2 0.2
19/02:30pm 15.1 9.5 3.3 45 5.3 SE 22 32 12 17 1032.9 1032.9 0.2
19/02:00pm 15.7 11.4 5.3 50 4.9 SE 17 24 9 13 1032.9 1032.9 0.2
19/01:30pm 14.3 9.5 5.4 55 4.2 SSE 20 30 11 16 1033.1 1033.1 0.2
19/01:00pm 15.3 10.9 4.9 50 4.9 ESE 17 26 9 14 1033.0 1033.0 0.2
19/12:30pm 14.0 9.8 5.9 58 3.8 ESE 17 22 9 12 1033.4 1033.4 0.2
19/12:00pm 13.7 9.3 6.6 62 3.4 SE 19 26 10 14 1033.7 1033.7 0.2
19/11:30am 12.7 9.7 7.6 71 2.5 SE 13 22 7 12 1033.8 1033.8 0.2
19/11:00am 14.5 10.6 5.3 54 4.3 SSE 15 22 8 12 1033.4 1033.4 0.0
19/10:30am 14.1 8.7 4.7 53 4.3 SE 22 32 12 17 1033.1 1033.1 0.0
19/10:00am 14.1 8.7 4.7 53 4.4 SSE 22 32 12 17 1033.1 1033.1 0.0
19/09:30am 13.7 10.2 7.0 64 3.2 S 15 26 8 14 1033.1 1033.1 0.0
19/09:00am 12.4 9.1 6.5 67 2.8 SSW 13 15 7 8 1032.7 1032.7 3.0
19/08:30am 11.0 10.4 7.3 78 1.8 CALM 0 0 0 0 1032.2 1032.2 3.0
19/08:00am 9.6 8.7 6.1 79 1.6 CALM 0 2 0 1 1031.5 1031.5 3.0
19/07:30am 7.9 5.9 6.2 89 0.8 NE 6 9 3 5 1030.7 1030.7 3.0
19/07:00am 6.6 4.7 5.1 90 0.7 NW 4 6 2 3 1030.1 1030.1 3.0
19/06:30am 6.5 5.4 5.0 90 0.7 CALM 0 0 0 0 1029.5 1029.5 3.0
19/06:00am 6.7 5.6 5.2 90 0.7 CALM 0 0 0 0 1029.1 1029.1 3.0
19/05:30am 7.2 6.2 5.5 89 0.8 CALM 0 0 0 0 1028.5 1028.5 3.0
19/05:00am 7.4 6.4 5.7 89 0.8 CALM 0 0 0 0 1028.0 1028.0 3.0
19/04:30am 8.0 6.0 4.4 78 1.6 SSE 4 7 2 4 1027.5 1027.5 3.0
19/04:00am 9.7 7.4 5.9 77 1.7 SE 7 11 4 6 1027.0 1027.0 2.8
19/03:30am 9.8 7.8 6.2 78 1.7 S 6 7 3 4 1026.7 1026.7 2.8
19/03:00am 9.8 7.7 5.8 76 1.8 S 6 9 3 5 1026.6 1026.6 2.8
19/02:30am 10.5 8.3 6.3 75 1.9 SSE 7 9 4 5 1026.3 1026.3 2.8
19/02:00am 10.6 8.5 6.6 76 1.9 SE 7 11 4 6 1026.3 1026.3 2.8
19/01:30am 11.1 9.0 6.5 73 2.2 S 7 11 4 6 1026.1 1026.1 2.8
19/01:00am 11.5 8.3 6.8 73 2.2 S 13 17 7 9 1025.8 1025.7 2.8
19/12:30am 11.6 9.3 7.3 75 2.1 S 9 13 5 7 1025.6 1025.5 2.8
19/12:00am 11.7 9.4 7.4 75 2.1 SSE 9 13 5 7 1025.2 1025.1 2.8
 
Date/Time
CST
Tmp

°C
App
Tmp
°C
Dew
Point
°C
Rel
Hum
%
Delta-T

°C
Wind Press
QNH
hPa
Press
MSL
hPa
Rain
since
9 am
mm
Dir
 
Spd
km/h
Gust
km/h
Spd
kts
Gust
kts
18/11:30pm 11.7 9.8 7.6 76 2.0 S 7 11 4 6 1025.0 1024.9 2.8
18/11:00pm 12.1 9.5 7.8 75 2.1 S 11 17 6 9 1024.9 1024.8 2.8
18/10:30pm 12.7 9.4 8.0 73 2.3 S 15 20 8 11 1024.7 1024.6 2.8
18/10:00pm 13.3 10.5 8.6 73 2.4 S 13 19 7 10 1024.2 1024.1 2.8
18/09:30pm 13.3 10.2 8.8 74 2.3 S 15 22 8 12 1023.7 1023.6 2.8
18/09:00pm 13.2 10.6 9.3 77 2.0 S 13 20 7 11 1023.1 1023.0 2.8
18/08:30pm 13.4 10.7 9.1 75 2.2 S 13 17 7 9 1022.5 1022.4 2.8
18/08:00pm 13.7 11.5 9.4 75 2.2 S 11 20 6 11 1022.0 1021.9 2.8
18/07:30pm 13.7 11.2 9.6 76 2.1 S 13 17 7 9 1021.5 1021.4 2.8
18/07:00pm 13.4 10.2 10.0 80 1.8 S 17 20 9 11 1020.9 1020.8 2.8
18/06:30pm 13.1 10.3 11.5 90 0.8 S 17 22 9 12 1020.1 1020.0 2.8
18/06:27pm 13.1 10.4 11.7 91 0.7 S 17 22 9 12 1020.1 1020.0 2.8
18/06:00pm 13.4 10.1 11.6 89 1.0 S 20 30 11 16 1019.8 1019.7 2.8
18/05:43pm 13.5 10.5 12.1 91 0.8 SSW 19 26 10 14 1019.5 1019.4 2.6
18/05:37pm 13.5 10.4 12.1 91 0.8 SSW 20 28 11 15 1019.2 1019.1 2.6
18/05:30pm 13.3 7.8 11.9 91 0.7 SSW 32 46 17 25 1019.1 1019.0 2.6
18/05:22pm 13.5 7.8 11.7 89 1.0 SSW 33 48 18 26 1019.1 1019.0 2.2
18/05:19pm 13.7 8.6 11.9 89 1.0 SSW 30 48 16 26 1019.0 1018.9 2.2
18/05:18pm 13.9 9.2 12.1 89 1.0 SSW 28 41 15 22 1019.0 1018.9 2.2
18/05:00pm 13.8 7.8 12.2 90 0.9 S 35 48 19 26 1018.5 1018.4 2.2
18/04:30pm 14.9 9.3 13.4 91 0.8 SSW 35 50 19 27 1017.7 1017.6 2.0
18/04:14pm 15.1 11.4 13.8 92 0.7 SW 26 33 14 18 1017.4 1017.3 1.8
18/04:12pm 15.2 11.1 13.9 92 0.7 SW 28 46 15 25 1017.3 1017.2 1.8

Latest Capital City Observations: Canberra | Sydney | Melbourne | Brisbane | Adelaide | Perth | Hobart | Darwin

Other Formats:

Comma delimited format used in spreadsheet applications
http://www.bom.gov.au/fwo/IDS60901/IDS60901.95676.axf

JavaScript Object Notation format (JSON) in row-major order
http://www.bom.gov.au/fwo/IDS60901/IDS60901.95676.json